Glenburn, Maine
Current Conditions -  °F | °C
As of 1:53 PM on Tuesday 21 Oct 2014 (Local Time) from KBGR Reporting Station
Overcast Overcast  
Wind Chill: 54°   Ceiling: 5500
Heat Index: 54°   Visibility: 10mi
Dew Point: 39°   Wind: 8mph
Humidity: 57%   Direction: 80°E
Pressure: 30.08"   Gusts: NA
Location:  44.8521°N, 68.8311°W
Report Text: KBGR 211753Z 08007KT 10SM FEW025 BKN055 OVC100 12/04 A3008 RMK AO2 SLP185 T01220039 10122 20061 58009
Loading
Personal Weather Stations






























Interactive Weather Map
Tropical Storm Tracking
New forecast layout! Learn more

10-Day Weather Forecast

Advertisements
Track Severe Weather on mobile